Weather forecast for Pikuj

Ukraine, 966 m
N48.830, E23.005


Sounding

Red line — air temperature ˚C.
Blue line — thermal bubble temperature ˚C.
Green line — dew point temperature ˚C.
Wind speed is in meters per second.

Table forecast

GFS 0.25˚ model

temp. wind gust humid. clouds prec. press. hpbl
Sun19 00:00 15 37.0 ne 2 2 91 71 0.0 1020 28
03:00 15 37.0 ne 2 2 93 74 0.0 1021 27
06:00 14 41.0 ne 2 2 94 1 0.0 1021 31
09:00 19 37.0 ne 2 3 80 1 0.0 1021 189
12:00 24 37.0 ne 2 3 55 0 0.0 1021 1220
15:00 24 36.0 ne 3 4 63 2 0.9 1020 1328
18:00 23 45.0 ne 4 6 64 4 0.8 1019 1183
21:00 17 38.0 ne 2 5 92 2 0.8 1020 127
 
Mon20 00:00 15 36.0 ne 2 4 96 0 0.0 1020 90
03:00 14 43.0 ne 2 3 96 1 0.0 1020 50
06:00 14 45.0 ne 2 2 96 32 0.0 1019 38
09:00 19 43.0 ne 1 2 79 21 0.0 1019 164
12:00 27 175.0 s 0 1 52 0 0.0 1018 1273
15:00 27 257.0 wsw 1 1 46 7 0.0 1016 1819
18:00 25 326.0 nw 1 1 57 69 0.1 1015 1079
21:00 18 42.0 ne 1 2 86 38 0.8 1016 23
 
Tue21 00:00 16 41.0 ne 1 2 90 0 0.0 1017 23
03:00 16 44.0 ne 1 2 89 0 0.0 1017 23
06:00 15 30.0 nne 1 1 86 0 0.0 1017 23
09:00 19 15.0 nne 2 3 81 25 0.0 1019 156
12:00 21 25.0 nne 2 5 86 15 2.8 1019 604
15:00 23 18.0 nne 3 4 72 10 5.3 1019 957
18:00 22 23.0 nne 3 5 67 4 0.1 1019 955
21:00 16 35.0 ne 3 5 84 2 0.1 1020 142
 
Wed22 00:00 13 37.0 ne 2 3 85 0 0.0 1022 86
03:00 12 36.0 ne 2 3 86 0 0.0 1022 79
06:00 11 38.0 ne 2 3 89 0 0.0 1022 72
09:00 16 45.0 ne 3 4 70 0 0.0 1022 276
12:00 22 58.0 ene 2 3 52 0 0.0 1022 850
15:00 25 61.0 ene 2 2 46 0 0.0 1020 1396
18:00 23 47.0 ne 2 3 56 0 0.0 1019 984
21:00 16 36.0 ne 2 3 89 0 0.0 1020 46
 
Thu23 00:00 14 52.0 ne 2 2 94 0 0.0 1021 40
03:00 14 76.0 ene 2 2 91 2 0.0 1020 25
06:00 14 114.0 ese 1 1 90 27 0.0 1019 23
09:00 20 166.0 sse 1 1 72 13 0.0 1019 154
12:00 24 204.0 ssw 2 2 53 0 0.0 1018 1171
15:00 26 225.0 sw 2 2 47 0 0.0 1017 1721
18:00 25 258.0 wsw 1 1 54 0 0.0 1016 1498
21:00 18 37.0 ne 1 1 84 1 0.1 1016 23
 

0.014 s